Terminal Aerodrome Forecast
Issued by NWS

Home | Current Version | Previous Version | Text Only | Print | Product List | Glossary On
Versions: 1 2 3 4 5 6 7 8 9 10 11 12
959
FTUS41 KBGM 240522
TAFITH
TAF
KITH 240522Z 2406/2506 16008KT P6SM OVC250
     FM241500 18012G22KT P6SM OVC250
     FM250200 13010G20KT P6SM -RA OVC040
     FM250400 13010G20KT P6SM -RA OVC025=

USA.gov is the U.S. government's official web portal to all federal, state and local government web resources and services.